sensor_id;sensor_type;location;lat;lon;timestamp;P1;durP1;ratioP1;P2;durP2;ratioP2
38053;SDS011;23859;50.672;7.164;2022-08-19T00:00:12;14.43;;;11.13;;
38053;SDS011;23859;50.672;7.164;2022-08-19T00:02:39;12.15;;;10.35;;
38053;SDS011;23859;50.672;7.164;2022-08-19T00:05:07;14.38;;;11.32;;
38053;SDS011;23859;50.672;7.164;2022-08-19T00:07:33;15.30;;;9.38;;
38053;SDS011;23859;50.672;7.164;2022-08-19T00:10:00;17.75;;;10.20;;
38053;SDS011;23859;50.672;7.164;2022-08-19T00:12:26;13.18;;;10.10;;
38053;SDS011;23859;50.672;7.164;2022-08-19T00:14:53;12.48;;;9.30;;
38053;SDS011;23859;50.672;7.164;2022-08-19T00:22:31;10.63;;;9.32;;
38053;SDS011;23859;50.672;7.164;2022-08-19T00:24:57;13.50;;;9.63;;
38053;SDS011;23859;50.672;7.164;2022-08-19T00:27:23;12.98;;;10.70;;
38053;SDS011;23859;50.672;7.164;2022-08-19T00:29:49;11.85;;;9.90;;
38053;SDS011;23859;50.672;7.164;2022-08-19T00:32:15;15.48;;;10.80;;
38053;SDS011;23859;50.672;7.164;2022-08-19T00:34:42;13.23;;;10.32;;
38053;SDS011;23859;50.672;7.164;2022-08-19T00:37:08;12.93;;;10.13;;
38053;SDS011;23859;50.672;7.164;2022-08-19T00:39:35;12.15;;;10.82;;
38053;SDS011;23859;50.672;7.164;2022-08-19T00:42:01;12.65;;;10.40;;
38053;SDS011;23859;50.672;7.164;2022-08-19T00:44:28;15.02;;;10.57;;
38053;SDS011;23859;50.672;7.164;2022-08-19T00:46:55;12.88;;;9.82;;
38053;SDS011;23859;50.672;7.164;2022-08-19T00:49:34;12.48;;;10.15;;
38053;SDS011;23859;50.672;7.164;2022-08-19T00:52:32;13.13;;;10.02;;
38053;SDS011;23859;50.672;7.164;2022-08-19T00:55:02;12.38;;;10.43;;
38053;SDS011;23859;50.672;7.164;2022-08-19T00:57:32;12.02;;;10.07;;
38053;SDS011;23859;50.672;7.164;2022-08-19T01:00:05;13.23;;;10.25;;
38053;SDS011;23859;50.672;7.164;2022-08-19T01:02:37;15.88;;;10.82;;
38053;SDS011;23859;50.672;7.164;2022-08-19T01:05:06;16.77;;;10.02;;
38053;SDS011;23859;50.672;7.164;2022-08-19T01:07:35;16.65;;;11.70;;
38053;SDS011;23859;50.672;7.164;2022-08-19T01:10:04;14.00;;;10.65;;
38053;SDS011;23859;50.672;7.164;2022-08-19T01:12:33;13.38;;;11.02;;
38053;SDS011;23859;50.672;7.164;2022-08-19T01:15:01;14.32;;;11.02;;
38053;SDS011;23859;50.672;7.164;2022-08-19T01:17:28;15.68;;;10.60;;
38053;SDS011;23859;50.672;7.164;2022-08-19T01:19:54;16.52;;;10.85;;
38053;SDS011;23859;50.672;7.164;2022-08-19T01:24:49;14.68;;;11.45;;
38053;SDS011;23859;50.672;7.164;2022-08-19T01:27:16;14.85;;;11.82;;
38053;SDS011;23859;50.672;7.164;2022-08-19T01:29:43;14.68;;;12.13;;
38053;SDS011;23859;50.672;7.164;2022-08-19T01:32:11;13.02;;;11.60;;
38053;SDS011;23859;50.672;7.164;2022-08-19T01:34:39;14.77;;;11.45;;
38053;SDS011;23859;50.672;7.164;2022-08-19T01:37:07;18.10;;;11.00;;
38053;SDS011;23859;50.672;7.164;2022-08-19T01:39:36;13.25;;;10.98;;
38053;SDS011;23859;50.672;7.164;2022-08-19T01:42:04;15.35;;;11.85;;
38053;SDS011;23859;50.672;7.164;2022-08-19T01:44:32;19.70;;;12.52;;
38053;SDS011;23859;50.672;7.164;2022-08-19T01:46:58;14.05;;;11.25;;
38053;SDS011;23859;50.672;7.164;2022-08-19T01:49:24;16.23;;;11.40;;
38053;SDS011;23859;50.672;7.164;2022-08-19T01:51:52;16.63;;;10.93;;
38053;SDS011;23859;50.672;7.164;2022-08-19T01:54:19;16.30;;;12.20;;
38053;SDS011;23859;50.672;7.164;2022-08-19T01:56:47;15.38;;;11.57;;
38053;SDS011;23859;50.672;7.164;2022-08-19T01:59:16;14.18;;;10.27;;
38053;SDS011;23859;50.672;7.164;2022-08-19T02:01:44;12.52;;;10.60;;
38053;SDS011;23859;50.672;7.164;2022-08-19T02:04:10;14.90;;;12.45;;
38053;SDS011;23859;50.672;7.164;2022-08-19T02:06:36;15.88;;;11.25;;
38053;SDS011;23859;50.672;7.164;2022-08-19T02:09:05;14.90;;;11.98;;
38053;SDS011;23859;50.672;7.164;2022-08-19T02:11:34;13.52;;;11.68;;
38053;SDS011;23859;50.672;7.164;2022-08-19T02:14:03;16.15;;;10.98;;
38053;SDS011;23859;50.672;7.164;2022-08-19T02:16:31;18.90;;;11.98;;
38053;SDS011;23859;50.672;7.164;2022-08-19T02:18:58;18.20;;;11.88;;
38053;SDS011;23859;50.672;7.164;2022-08-19T02:21:27;13.95;;;11.27;;
38053;SDS011;23859;50.672;7.164;2022-08-19T02:23:54;18.63;;;11.73;;
38053;SDS011;23859;50.672;7.164;2022-08-19T02:26:20;14.98;;;11.38;;
38053;SDS011;23859;50.672;7.164;2022-08-19T02:28:47;19.27;;;13.02;;
38053;SDS011;23859;50.672;7.164;2022-08-19T02:31:15;15.63;;;11.00;;
38053;SDS011;23859;50.672;7.164;2022-08-19T02:33:45;12.68;;;11.38;;
38053;SDS011;23859;50.672;7.164;2022-08-19T02:36:12;15.52;;;11.82;;
38053;SDS011;23859;50.672;7.164;2022-08-19T02:38:39;18.10;;;12.82;;
38053;SDS011;23859;50.672;7.164;2022-08-19T02:41:08;15.57;;;11.98;;
38053;SDS011;23859;50.672;7.164;2022-08-19T02:43:41;15.07;;;12.80;;
38053;SDS011;23859;50.672;7.164;2022-08-19T02:46:17;18.38;;;12.52;;
38053;SDS011;23859;50.672;7.164;2022-08-19T02:48:49;15.48;;;11.90;;
38053;SDS011;23859;50.672;7.164;2022-08-19T02:51:21;16.55;;;12.50;;
38053;SDS011;23859;50.672;7.164;2022-08-19T02:53:49;14.10;;;12.35;;
38053;SDS011;23859;50.672;7.164;2022-08-19T02:56:15;15.75;;;11.73;;
38053;SDS011;23859;50.672;7.164;2022-08-19T02:58:42;15.68;;;12.23;;
38053;SDS011;23859;50.672;7.164;2022-08-19T03:01:08;16.70;;;12.32;;
38053;SDS011;23859;50.672;7.164;2022-08-19T03:03:36;14.73;;;12.18;;
38053;SDS011;23859;50.672;7.164;2022-08-19T03:06:06;13.88;;;12.00;;
38053;SDS011;23859;50.672;7.164;2022-08-19T03:08:35;14.95;;;12.32;;
38053;SDS011;23859;50.672;7.164;2022-08-19T03:11:02;27.17;;;12.88;;
38053;SDS011;23859;50.672;7.164;2022-08-19T03:13:29;15.88;;;12.75;;
38053;SDS011;23859;50.672;7.164;2022-08-19T03:15:55;15.77;;;11.90;;
38053;SDS011;23859;50.672;7.164;2022-08-19T03:18:21;13.68;;;11.32;;
38053;SDS011;23859;50.672;7.164;2022-08-19T03:20:48;14.65;;;11.50;;
38053;SDS011;23859;50.672;7.164;2022-08-19T03:23:17;16.05;;;12.60;;
38053;SDS011;23859;50.672;7.164;2022-08-19T03:25:45;15.00;;;11.40;;
38053;SDS011;23859;50.672;7.164;2022-08-19T03:28:13;16.38;;;11.43;;
38053;SDS011;23859;50.672;7.164;2022-08-19T03:30:40;17.05;;;12.35;;
38053;SDS011;23859;50.672;7.164;2022-08-19T03:33:08;16.75;;;12.70;;
38053;SDS011;23859;50.672;7.164;2022-08-19T03:35:36;15.00;;;11.77;;
38053;SDS011;23859;50.672;7.164;2022-08-19T03:38:03;18.88;;;12.15;;
38053;SDS011;23859;50.672;7.164;2022-08-19T03:40:30;16.98;;;13.50;;
38053;SDS011;23859;50.672;7.164;2022-08-19T03:42:57;15.88;;;12.15;;
38053;SDS011;23859;50.672;7.164;2022-08-19T03:45:23;15.85;;;12.57;;
38053;SDS011;23859;50.672;7.164;2022-08-19T03:47:49;14.48;;;12.52;;
38053;SDS011;23859;50.672;7.164;2022-08-19T03:50:15;19.38;;;12.77;;
38053;SDS011;23859;50.672;7.164;2022-08-19T03:52:47;17.17;;;12.85;;
38053;SDS011;23859;50.672;7.164;2022-08-19T03:55:17;21.85;;;12.95;;
38053;SDS011;23859;50.672;7.164;2022-08-19T03:57:43;15.85;;;11.60;;
38053;SDS011;23859;50.672;7.164;2022-08-19T04:00:10;18.63;;;13.98;;
38053;SDS011;23859;50.672;7.164;2022-08-19T04:02:37;23.80;;;13.63;;
38053;SDS011;23859;50.672;7.164;2022-08-19T04:05:03;18.25;;;14.40;;
38053;SDS011;23859;50.672;7.164;2022-08-19T04:07:30;15.77;;;13.93;;
38053;SDS011;23859;50.672;7.164;2022-08-19T04:09:56;19.45;;;13.80;;
38053;SDS011;23859;50.672;7.164;2022-08-19T04:12:22;21.42;;;14.27;;
38053;SDS011;23859;50.672;7.164;2022-08-19T04:14:48;20.77;;;14.70;;
38053;SDS011;23859;50.672;7.164;2022-08-19T04:17:14;17.15;;;13.65;;
38053;SDS011;23859;50.672;7.164;2022-08-19T04:19:40;16.45;;;12.90;;
38053;SDS011;23859;50.672;7.164;2022-08-19T04:22:07;20.38;;;14.60;;
38053;SDS011;23859;50.672;7.164;2022-08-19T04:24:36;17.77;;;13.52;;
38053;SDS011;23859;50.672;7.164;2022-08-19T04:27:02;16.45;;;13.75;;
38053;SDS011;23859;50.672;7.164;2022-08-19T04:29:30;22.73;;;14.90;;
38053;SDS011;23859;50.672;7.164;2022-08-19T04:31:56;23.25;;;15.10;;
38053;SDS011;23859;50.672;7.164;2022-08-19T04:34:24;18.27;;;13.38;;
38053;SDS011;23859;50.672;7.164;2022-08-19T04:36:53;19.27;;;12.85;;
38053;SDS011;23859;50.672;7.164;2022-08-19T04:39:22;16.33;;;13.23;;
38053;SDS011;23859;50.672;7.164;2022-08-19T04:42:10;18.00;;;13.38;;
38053;SDS011;23859;50.672;7.164;2022-08-19T04:44:55;16.50;;;13.98;;
38053;SDS011;23859;50.672;7.164;2022-08-19T04:47:23;19.17;;;14.63;;
38053;SDS011;23859;50.672;7.164;2022-08-19T04:49:49;21.95;;;16.52;;
38053;SDS011;23859;50.672;7.164;2022-08-19T04:52:15;21.15;;;15.60;;
38053;SDS011;23859;50.672;7.164;2022-08-19T04:54:41;19.65;;;14.98;;
38053;SDS011;23859;50.672;7.164;2022-08-19T04:57:07;20.40;;;16.02;;
38053;SDS011;23859;50.672;7.164;2022-08-19T04:59:34;20.40;;;15.48;;
38053;SDS011;23859;50.672;7.164;2022-08-19T05:02:02;19.17;;;14.77;;
38053;SDS011;23859;50.672;7.164;2022-08-19T05:04:28;20.27;;;16.00;;
38053;SDS011;23859;50.672;7.164;2022-08-19T05:06:58;18.77;;;14.98;;
38053;SDS011;23859;50.672;7.164;2022-08-19T05:09:25;22.25;;;14.57;;
38053;SDS011;23859;50.672;7.164;2022-08-19T05:11:52;22.98;;;16.23;;
38053;SDS011;23859;50.672;7.164;2022-08-19T05:14:18;20.88;;;14.60;;
38053;SDS011;23859;50.672;7.164;2022-08-19T05:16:45;19.45;;;14.38;;
38053;SDS011;23859;50.672;7.164;2022-08-19T05:19:12;21.08;;;15.77;;
38053;SDS011;23859;50.672;7.164;2022-08-19T05:21:57;22.88;;;16.17;;
38053;SDS011;23859;50.672;7.164;2022-08-19T05:24:43;21.80;;;16.17;;
38053;SDS011;23859;50.672;7.164;2022-08-19T05:27:09;26.70;;;17.23;;
38053;SDS011;23859;50.672;7.164;2022-08-19T05:29:35;21.83;;;17.45;;
38053;SDS011;23859;50.672;7.164;2022-08-19T05:32:02;23.25;;;17.92;;
38053;SDS011;23859;50.672;7.164;2022-08-19T05:34:30;24.05;;;18.00;;
38053;SDS011;23859;50.672;7.164;2022-08-19T05:36:58;25.30;;;18.88;;
38053;SDS011;23859;50.672;7.164;2022-08-19T05:39:26;23.92;;;18.20;;
38053;SDS011;23859;50.672;7.164;2022-08-19T05:41:58;20.98;;;16.55;;
38053;SDS011;23859;50.672;7.164;2022-08-19T05:44:26;21.55;;;15.68;;
38053;SDS011;23859;50.672;7.164;2022-08-19T05:46:56;24.52;;;17.73;;
38053;SDS011;23859;50.672;7.164;2022-08-19T05:49:23;26.40;;;17.52;;
38053;SDS011;23859;50.672;7.164;2022-08-19T05:51:50;25.58;;;17.98;;
38053;SDS011;23859;50.672;7.164;2022-08-19T05:54:17;25.73;;;18.52;;
38053;SDS011;23859;50.672;7.164;2022-08-19T05:56:44;24.70;;;19.50;;
38053;SDS011;23859;50.672;7.164;2022-08-19T05:59:13;26.20;;;18.70;;
38053;SDS011;23859;50.672;7.164;2022-08-19T06:01:41;24.52;;;19.08;;
38053;SDS011;23859;50.672;7.164;2022-08-19T06:04:09;31.10;;;21.38;;
38053;SDS011;23859;50.672;7.164;2022-08-19T06:06:35;38.63;;;21.58;;
38053;SDS011;23859;50.672;7.164;2022-08-19T06:09:03;29.17;;;21.35;;
38053;SDS011;23859;50.672;7.164;2022-08-19T06:11:37;34.13;;;23.45;;
38053;SDS011;23859;50.672;7.164;2022-08-19T06:14:09;31.30;;;22.45;;
38053;SDS011;23859;50.672;7.164;2022-08-19T06:16:38;36.17;;;24.13;;
38053;SDS011;23859;50.672;7.164;2022-08-19T06:19:08;33.78;;;21.33;;
38053;SDS011;23859;50.672;7.164;2022-08-19T06:21:37;33.50;;;22.10;;
38053;SDS011;23859;50.672;7.164;2022-08-19T06:24:05;33.78;;;23.73;;
38053;SDS011;23859;50.672;7.164;2022-08-19T06:26:35;30.58;;;22.42;;
38053;SDS011;23859;50.672;7.164;2022-08-19T06:29:03;39.10;;;26.60;;
38053;SDS011;23859;50.672;7.164;2022-08-19T06:31:31;38.22;;;26.40;;
38053;SDS011;23859;50.672;7.164;2022-08-19T06:33:59;39.80;;;25.70;;
38053;SDS011;23859;50.672;7.164;2022-08-19T06:36:30;40.25;;;27.02;;
38053;SDS011;23859;50.672;7.164;2022-08-19T06:38:59;39.20;;;28.13;;
38053;SDS011;23859;50.672;7.164;2022-08-19T06:41:28;47.13;;;29.10;;
38053;SDS011;23859;50.672;7.164;2022-08-19T06:43:55;42.97;;;28.13;;
38053;SDS011;23859;50.672;7.164;2022-08-19T06:46:22;41.45;;;28.27;;
38053;SDS011;23859;50.672;7.164;2022-08-19T06:48:48;43.90;;;28.88;;
38053;SDS011;23859;50.672;7.164;2022-08-19T06:51:15;41.60;;;27.75;;
38053;SDS011;23859;50.672;7.164;2022-08-19T06:53:46;41.90;;;26.77;;
38053;SDS011;23859;50.672;7.164;2022-08-19T06:56:17;45.13;;;29.67;;
38053;SDS011;23859;50.672;7.164;2022-08-19T06:58:46;42.85;;;26.70;;
38053;SDS011;23859;50.672;7.164;2022-08-19T07:01:18;44.75;;;28.95;;
38053;SDS011;23859;50.672;7.164;2022-08-19T07:03:45;43.55;;;27.45;;
38053;SDS011;23859;50.672;7.164;2022-08-19T07:06:12;44.70;;;28.70;;
38053;SDS011;23859;50.672;7.164;2022-08-19T07:08:42;40.00;;;26.33;;
38053;SDS011;23859;50.672;7.164;2022-08-19T07:11:10;40.22;;;27.48;;
38053;SDS011;23859;50.672;7.164;2022-08-19T07:13:38;48.83;;;30.33;;
38053;SDS011;23859;50.672;7.164;2022-08-19T07:16:09;43.85;;;27.83;;
38053;SDS011;23859;50.672;7.164;2022-08-19T07:18:37;39.88;;;26.60;;
38053;SDS011;23859;50.672;7.164;2022-08-19T07:23:31;36.20;;;25.92;;
38053;SDS011;23859;50.672;7.164;2022-08-19T07:25:58;41.45;;;26.85;;
38053;SDS011;23859;50.672;7.164;2022-08-19T07:28:35;35.78;;;25.23;;
38053;SDS011;23859;50.672;7.164;2022-08-19T07:31:04;40.58;;;25.33;;
38053;SDS011;23859;50.672;7.164;2022-08-19T07:33:31;40.28;;;25.90;;
38053;SDS011;23859;50.672;7.164;2022-08-19T07:35:58;35.33;;;23.33;;
38053;SDS011;23859;50.672;7.164;2022-08-19T07:38:24;33.20;;;23.20;;
38053;SDS011;23859;50.672;7.164;2022-08-19T07:40:50;30.52;;;22.65;;
38053;SDS011;23859;50.672;7.164;2022-08-19T07:43:17;33.15;;;22.08;;
38053;SDS011;23859;50.672;7.164;2022-08-19T07:45:45;28.63;;;21.33;;
38053;SDS011;23859;50.672;7.164;2022-08-19T07:48:12;29.42;;;19.95;;
38053;SDS011;23859;50.672;7.164;2022-08-19T07:50:39;31.60;;;19.45;;
38053;SDS011;23859;50.672;7.164;2022-08-19T07:53:05;30.00;;;20.27;;
38053;SDS011;23859;50.672;7.164;2022-08-19T07:55:31;27.38;;;18.80;;
38053;SDS011;23859;50.672;7.164;2022-08-19T07:57:58;25.80;;;17.48;;
38053;SDS011;23859;50.672;7.164;2022-08-19T08:00:25;22.40;;;16.67;;
38053;SDS011;23859;50.672;7.164;2022-08-19T08:02:51;28.33;;;17.38;;
38053;SDS011;23859;50.672;7.164;2022-08-19T08:05:18;30.75;;;20.75;;
38053;SDS011;23859;50.672;7.164;2022-08-19T08:08:02;27.23;;;16.73;;
38053;SDS011;23859;50.672;7.164;2022-08-19T08:10:47;21.15;;;16.27;;
38053;SDS011;23859;50.672;7.164;2022-08-19T08:13:13;21.05;;;15.90;;
38053;SDS011;23859;50.672;7.164;2022-08-19T08:15:39;24.65;;;16.83;;
38053;SDS011;23859;50.672;7.164;2022-08-19T08:18:05;21.92;;;15.63;;
38053;SDS011;23859;50.672;7.164;2022-08-19T08:20:31;22.40;;;16.33;;
38053;SDS011;23859;50.672;7.164;2022-08-19T08:22:58;24.40;;;17.95;;
38053;SDS011;23859;50.672;7.164;2022-08-19T08:25:42;24.27;;;15.95;;
38053;SDS011;23859;50.672;7.164;2022-08-19T08:28:09;23.95;;;16.98;;
38053;SDS011;23859;50.672;7.164;2022-08-19T08:30:35;23.25;;;16.70;;
38053;SDS011;23859;50.672;7.164;2022-08-19T08:33:02;28.60;;;17.60;;
38053;SDS011;23859;50.672;7.164;2022-08-19T08:35:28;25.23;;;18.10;;
38053;SDS011;23859;50.672;7.164;2022-08-19T08:37:55;22.63;;;15.88;;
38053;SDS011;23859;50.672;7.164;2022-08-19T08:40:29;29.02;;;18.98;;
38053;SDS011;23859;50.672;7.164;2022-08-19T08:46:13;23.02;;;14.48;;
38053;SDS011;23859;50.672;7.164;2022-08-19T08:48:46;27.98;;;17.05;;
38053;SDS011;23859;50.672;7.164;2022-08-19T08:54:20;19.20;;;14.07;;
38053;SDS011;23859;50.672;7.164;2022-08-19T08:56:50;24.52;;;16.70;;
38053;SDS011;23859;50.672;7.164;2022-08-19T08:59:21;18.60;;;14.27;;
38053;SDS011;23859;50.672;7.164;2022-08-19T09:01:59;18.67;;;13.13;;
38053;SDS011;23859;50.672;7.164;2022-08-19T09:04:26;17.17;;;12.98;;
38053;SDS011;23859;50.672;7.164;2022-08-19T09:09:51;17.33;;;11.80;;
38053;SDS011;23859;50.672;7.164;2022-08-19T09:15:04;23.60;;;13.93;;
38053;SDS011;23859;50.672;7.164;2022-08-19T09:17:33;21.83;;;14.23;;
38053;SDS011;23859;50.672;7.164;2022-08-19T09:22:39;19.05;;;13.18;;
38053;SDS011;23859;50.672;7.164;2022-08-19T09:27:36;23.15;;;14.52;;
38053;SDS011;23859;50.672;7.164;2022-08-19T09:30:05;23.85;;;14.77;;
38053;SDS011;23859;50.672;7.164;2022-08-19T09:32:33;17.65;;;13.48;;
38053;SDS011;23859;50.672;7.164;2022-08-19T09:34:59;22.77;;;13.95;;
38053;SDS011;23859;50.672;7.164;2022-08-19T09:37:26;19.42;;;12.95;;
38053;SDS011;23859;50.672;7.164;2022-08-19T09:39:52;24.75;;;16.02;;
38053;SDS011;23859;50.672;7.164;2022-08-19T09:42:19;19.55;;;13.85;;
38053;SDS011;23859;50.672;7.164;2022-08-19T09:44:45;20.08;;;14.52;;
38053;SDS011;23859;50.672;7.164;2022-08-19T09:47:12;29.33;;;18.63;;
38053;SDS011;23859;50.672;7.164;2022-08-19T09:49:39;28.20;;;16.42;;
38053;SDS011;23859;50.672;7.164;2022-08-19T09:52:07;24.58;;;17.98;;
38053;SDS011;23859;50.672;7.164;2022-08-19T09:54:35;22.15;;;15.40;;
38053;SDS011;23859;50.672;7.164;2022-08-19T09:57:02;26.23;;;17.17;;
38053;SDS011;23859;50.672;7.164;2022-08-19T09:59:28;24.35;;;18.00;;
38053;SDS011;23859;50.672;7.164;2022-08-19T10:01:55;22.02;;;17.13;;
38053;SDS011;23859;50.672;7.164;2022-08-19T10:04:21;27.13;;;17.48;;
38053;SDS011;23859;50.672;7.164;2022-08-19T10:06:48;25.80;;;17.88;;
38053;SDS011;23859;50.672;7.164;2022-08-19T10:09:16;23.15;;;16.75;;
38053;SDS011;23859;50.672;7.164;2022-08-19T10:11:43;26.42;;;19.40;;
38053;SDS011;23859;50.672;7.164;2022-08-19T10:14:14;28.90;;;17.88;;
38053;SDS011;23859;50.672;7.164;2022-08-19T10:16:42;26.33;;;17.92;;
38053;SDS011;23859;50.672;7.164;2022-08-19T10:19:08;20.10;;;14.45;;
38053;SDS011;23859;50.672;7.164;2022-08-19T10:21:34;22.83;;;14.43;;
38053;SDS011;23859;50.672;7.164;2022-08-19T10:24:02;25.15;;;17.70;;
38053;SDS011;23859;50.672;7.164;2022-08-19T10:26:31;24.13;;;17.20;;
38053;SDS011;23859;50.672;7.164;2022-08-19T10:29:00;24.55;;;16.75;;
38053;SDS011;23859;50.672;7.164;2022-08-19T10:31:30;25.88;;;17.15;;
38053;SDS011;23859;50.672;7.164;2022-08-19T10:33:57;29.23;;;19.20;;
38053;SDS011;23859;50.672;7.164;2022-08-19T10:36:28;30.30;;;22.20;;
38053;SDS011;23859;50.672;7.164;2022-08-19T10:38:58;24.47;;;18.07;;
38053;SDS011;23859;50.672;7.164;2022-08-19T10:41:30;25.65;;;17.63;;
38053;SDS011;23859;50.672;7.164;2022-08-19T10:43:59;22.70;;;14.00;;
38053;SDS011;23859;50.672;7.164;2022-08-19T10:46:28;30.35;;;17.98;;
38053;SDS011;23859;50.672;7.164;2022-08-19T10:48:57;27.35;;;18.52;;
38053;SDS011;23859;50.672;7.164;2022-08-19T10:51:24;26.70;;;15.52;;
38053;SDS011;23859;50.672;7.164;2022-08-19T10:54:09;17.35;;;14.30;;
38053;SDS011;23859;50.672;7.164;2022-08-19T10:56:35;18.92;;;14.52;;
38053;SDS011;23859;50.672;7.164;2022-08-19T10:59:26;23.27;;;14.88;;
38053;SDS011;23859;50.672;7.164;2022-08-19T11:01:54;22.45;;;16.17;;
38053;SDS011;23859;50.672;7.164;2022-08-19T11:04:25;19.80;;;14.50;;
38053;SDS011;23859;50.672;7.164;2022-08-19T11:06:51;24.75;;;14.98;;
38053;SDS011;23859;50.672;7.164;2022-08-19T11:09:19;20.00;;;14.23;;
38053;SDS011;23859;50.672;7.164;2022-08-19T11:11:49;17.45;;;13.38;;
38053;SDS011;23859;50.672;7.164;2022-08-19T11:14:18;21.30;;;16.35;;
38053;SDS011;23859;50.672;7.164;2022-08-19T11:16:46;21.00;;;15.55;;
38053;SDS011;23859;50.672;7.164;2022-08-19T11:19:14;19.45;;;13.00;;
38053;SDS011;23859;50.672;7.164;2022-08-19T11:21:44;16.80;;;10.95;;
38053;SDS011;23859;50.672;7.164;2022-08-19T11:24:16;12.32;;;10.00;;
38053;SDS011;23859;50.672;7.164;2022-08-19T11:26:45;13.00;;;10.30;;
38053;SDS011;23859;50.672;7.164;2022-08-19T11:29:15;16.23;;;10.40;;
38053;SDS011;23859;50.672;7.164;2022-08-19T11:31:44;15.27;;;9.95;;
38053;SDS011;23859;50.672;7.164;2022-08-19T11:34:15;10.95;;;8.43;;
38053;SDS011;23859;50.672;7.164;2022-08-19T11:36:47;12.63;;;7.15;;
38053;SDS011;23859;50.672;7.164;2022-08-19T11:39:16;10.75;;;8.73;;
38053;SDS011;23859;50.672;7.164;2022-08-19T11:41:44;11.65;;;8.82;;
38053;SDS011;23859;50.672;7.164;2022-08-19T11:44:10;11.75;;;8.75;;
38053;SDS011;23859;50.672;7.164;2022-08-19T11:46:38;10.57;;;8.25;;
38053;SDS011;23859;50.672;7.164;2022-08-19T11:49:06;12.35;;;8.48;;
38053;SDS011;23859;50.672;7.164;2022-08-19T11:51:34;9.10;;;8.05;;
38053;SDS011;23859;50.672;7.164;2022-08-19T11:54:00;10.32;;;7.88;;
38053;SDS011;23859;50.672;7.164;2022-08-19T11:56:28;9.75;;;7.80;;
38053;SDS011;23859;50.672;7.164;2022-08-19T11:58:55;8.30;;;7.43;;
38053;SDS011;23859;50.672;7.164;2022-08-19T12:01:22;10.70;;;8.77;;
38053;SDS011;23859;50.672;7.164;2022-08-19T12:03:50;18.23;;;9.85;;
38053;SDS011;23859;50.672;7.164;2022-08-19T12:06:22;11.27;;;8.27;;
38053;SDS011;23859;50.672;7.164;2022-08-19T12:08:54;10.38;;;8.10;;
38053;SDS011;23859;50.672;7.164;2022-08-19T12:11:21;11.63;;;8.57;;
38053;SDS011;23859;50.672;7.164;2022-08-19T12:13:48;13.85;;;8.23;;
38053;SDS011;23859;50.672;7.164;2022-08-19T12:16:16;11.80;;;8.70;;
38053;SDS011;23859;50.672;7.164;2022-08-19T12:18:44;15.88;;;9.50;;
38053;SDS011;23859;50.672;7.164;2022-08-19T12:21:14;11.73;;;9.18;;
38053;SDS011;23859;50.672;7.164;2022-08-19T12:23:42;11.05;;;9.38;;
38053;SDS011;23859;50.672;7.164;2022-08-19T12:26:10;12.07;;;9.45;;
38053;SDS011;23859;50.672;7.164;2022-08-19T12:28:36;14.20;;;9.20;;
38053;SDS011;23859;50.672;7.164;2022-08-19T12:31:03;17.55;;;9.82;;
38053;SDS011;23859;50.672;7.164;2022-08-19T12:33:29;15.85;;;10.65;;
38053;SDS011;23859;50.672;7.164;2022-08-19T12:35:59;13.57;;;9.88;;
38053;SDS011;23859;50.672;7.164;2022-08-19T12:38:30;12.25;;;10.15;;
38053;SDS011;23859;50.672;7.164;2022-08-19T12:40:57;15.93;;;12.45;;
38053;SDS011;23859;50.672;7.164;2022-08-19T12:43:23;13.00;;;10.25;;
38053;SDS011;23859;50.672;7.164;2022-08-19T12:45:49;15.77;;;11.65;;
38053;SDS011;23859;50.672;7.164;2022-08-19T12:48:16;11.32;;;10.13;;
38053;SDS011;23859;50.672;7.164;2022-08-19T12:50:42;13.13;;;10.00;;
38053;SDS011;23859;50.672;7.164;2022-08-19T12:53:12;11.93;;;10.43;;
38053;SDS011;23859;50.672;7.164;2022-08-19T12:55:39;15.88;;;10.98;;
38053;SDS011;23859;50.672;7.164;2022-08-19T12:58:05;12.60;;;10.32;;
38053;SDS011;23859;50.672;7.164;2022-08-19T13:00:31;12.35;;;10.70;;
38053;SDS011;23859;50.672;7.164;2022-08-19T13:02:57;14.73;;;11.98;;
38053;SDS011;23859;50.672;7.164;2022-08-19T13:05:26;14.57;;;12.25;;
38053;SDS011;23859;50.672;7.164;2022-08-19T13:07:54;16.70;;;13.50;;
38053;SDS011;23859;50.672;7.164;2022-08-19T13:10:23;16.27;;;12.27;;
38053;SDS011;23859;50.672;7.164;2022-08-19T13:12:52;21.15;;;12.18;;
38053;SDS011;23859;50.672;7.164;2022-08-19T13:15:19;14.95;;;12.30;;
38053;SDS011;23859;50.672;7.164;2022-08-19T13:17:47;13.48;;;11.82;;
38053;SDS011;23859;50.672;7.164;2022-08-19T13:20:15;15.15;;;12.88;;
38053;SDS011;23859;50.672;7.164;2022-08-19T13:22:43;15.18;;;12.73;;
38053;SDS011;23859;50.672;7.164;2022-08-19T13:25:11;16.52;;;12.30;;
38053;SDS011;23859;50.672;7.164;2022-08-19T13:27:38;15.75;;;12.68;;
38053;SDS011;23859;50.672;7.164;2022-08-19T13:30:05;14.90;;;12.73;;
38053;SDS011;23859;50.672;7.164;2022-08-19T13:32:53;13.73;;;11.82;;
38053;SDS011;23859;50.672;7.164;2022-08-19T13:35:45;14.80;;;10.80;;
38053;SDS011;23859;50.672;7.164;2022-08-19T13:38:14;13.98;;;11.88;;
38053;SDS011;23859;50.672;7.164;2022-08-19T13:40:43;14.25;;;12.25;;
38053;SDS011;23859;50.672;7.164;2022-08-19T13:43:11;14.18;;;11.82;;
38053;SDS011;23859;50.672;7.164;2022-08-19T13:45:37;13.68;;;10.70;;
38053;SDS011;23859;50.672;7.164;2022-08-19T13:48:06;13.43;;;10.20;;
38053;SDS011;23859;50.672;7.164;2022-08-19T13:50:34;13.63;;;9.68;;
38053;SDS011;23859;50.672;7.164;2022-08-19T13:53:03;11.80;;;9.85;;
38053;SDS011;23859;50.672;7.164;2022-08-19T13:55:30;14.13;;;10.07;;
38053;SDS011;23859;50.672;7.164;2022-08-19T13:57:57;17.33;;;10.25;;
38053;SDS011;23859;50.672;7.164;2022-08-19T14:00:27;11.90;;;9.70;;
38053;SDS011;23859;50.672;7.164;2022-08-19T14:02:56;11.40;;;9.13;;
38053;SDS011;23859;50.672;7.164;2022-08-19T14:05:24;13.25;;;9.65;;
38053;SDS011;23859;50.672;7.164;2022-08-19T14:07:51;12.30;;;9.75;;
38053;SDS011;23859;50.672;7.164;2022-08-19T14:10:18;14.30;;;10.15;;
38053;SDS011;23859;50.672;7.164;2022-08-19T14:12:45;15.20;;;10.10;;
38053;SDS011;23859;50.672;7.164;2022-08-19T14:15:12;12.20;;;10.10;;
38053;SDS011;23859;50.672;7.164;2022-08-19T14:17:40;12.93;;;10.63;;
38053;SDS011;23859;50.672;7.164;2022-08-19T14:20:08;13.50;;;9.55;;
38053;SDS011;23859;50.672;7.164;2022-08-19T14:22:36;14.73;;;9.73;;
38053;SDS011;23859;50.672;7.164;2022-08-19T14:25:06;14.77;;;9.68;;
38053;SDS011;23859;50.672;7.164;2022-08-19T14:27:34;11.45;;;9.10;;
38053;SDS011;23859;50.672;7.164;2022-08-19T14:30:02;10.35;;;8.32;;
38053;SDS011;23859;50.672;7.164;2022-08-19T14:32:31;10.88;;;8.80;;
38053;SDS011;23859;50.672;7.164;2022-08-19T14:34:58;11.10;;;8.57;;
38053;SDS011;23859;50.672;7.164;2022-08-19T14:37:24;13.82;;;9.18;;
38053;SDS011;23859;50.672;7.164;2022-08-19T14:39:50;15.48;;;10.07;;
38053;SDS011;23859;50.672;7.164;2022-08-19T14:42:16;14.15;;;10.38;;
38053;SDS011;23859;50.672;7.164;2022-08-19T14:44:42;13.13;;;9.07;;
38053;SDS011;23859;50.672;7.164;2022-08-19T14:47:09;14.48;;;9.13;;
38053;SDS011;23859;50.672;7.164;2022-08-19T14:49:35;12.25;;;8.90;;
38053;SDS011;23859;50.672;7.164;2022-08-19T14:52:01;11.20;;;9.68;;
38053;SDS011;23859;50.672;7.164;2022-08-19T14:54:28;15.30;;;8.95;;
38053;SDS011;23859;50.672;7.164;2022-08-19T14:56:55;11.13;;;9.00;;